createdAt,value
2019-02-05T00:01:47.456Z,100762.44
2019-02-05T00:04:16.555Z,100759.89
2019-02-05T00:06:45.672Z,100759.05
2019-02-05T00:09:14.719Z,100756.83
2019-02-05T00:11:43.779Z,100746.91
2019-02-05T00:14:12.849Z,100740.80
2019-02-05T00:16:42.224Z,100738.13
2019-02-05T00:19:11.310Z,100738.80
2019-02-05T00:21:40.402Z,100751.33
2019-02-05T00:24:09.418Z,100754.56
2019-02-05T00:26:38.537Z,100754.10
2019-02-05T00:29:07.606Z,100750.75
2019-02-05T00:31:36.937Z,100748.41
2019-02-05T00:34:06.040Z,100747.16
2019-02-05T00:36:35.118Z,100753.06
2019-02-05T00:39:05.453Z,100754.69
2019-02-05T00:41:34.607Z,100759.11
2019-02-05T00:44:03.684Z,100768.64
2019-02-05T00:46:33.255Z,100765.15
2019-02-05T00:49:02.302Z,100767.80
2019-02-05T00:51:31.382Z,100766.91
2019-02-05T00:54:00.436Z,100761.69
2019-02-05T00:56:29.434Z,100766.91
2019-02-05T00:58:58.460Z,100769.05
2019-02-05T01:01:27.866Z,100764.23
2019-02-05T01:03:56.935Z,100766.77
2019-02-05T01:06:26.015Z,100759.94
2019-02-05T01:08:55.197Z,100762.94
2019-02-05T01:11:24.241Z,100783.16
2019-02-05T01:13:53.318Z,100770.58
2019-02-05T01:16:22.621Z,100760.12
2019-02-05T01:18:51.745Z,100754.60
2019-02-05T01:21:20.796Z,100754.09
2019-02-05T01:23:49.790Z,100763.58
2019-02-05T01:26:28.698Z,100756.25
2019-02-05T01:28:49.573Z,100760.84
2019-02-05T01:31:18.814Z,100768.77
2019-02-05T01:33:47.889Z,100771.66
2019-02-05T01:36:16.917Z,100756.47
2019-02-05T01:38:45.947Z,100749.32
2019-02-05T01:41:14.987Z,100758.34
2019-02-05T01:43:43.998Z,100760.08
2019-02-05T01:46:13.146Z,100756.59
2019-02-05T01:48:42.180Z,100760.86
2019-02-05T01:51:11.251Z,100765.76
2019-02-05T01:53:40.262Z,100773.74
2019-02-05T01:56:09.278Z,100771.75
2019-02-05T01:58:38.317Z,100783.51
2019-02-05T02:01:07.615Z,100778.89
2019-02-05T02:03:36.619Z,100779.43
2019-02-05T02:06:05.569Z,100780.02
2019-02-05T02:08:34.557Z,100785.73
2019-02-05T02:11:03.599Z,100788.25
2019-02-05T02:13:32.602Z,100785.59
2019-02-05T02:16:01.933Z,100792.14
2019-02-05T02:18:31.051Z,100790.98
2019-02-05T02:21:00.130Z,100787.92
2019-02-05T02:23:29.243Z,100783.70
2019-02-05T02:25:58.238Z,100780.92
2019-02-05T02:28:27.247Z,100788.30
2019-02-05T02:30:56.478Z,100803.83
2019-02-05T02:33:25.543Z,100777.41
2019-02-05T02:35:54.447Z,100772.23
2019-02-05T02:38:23.499Z,100774.89
2019-02-05T02:40:52.650Z,100780.13
2019-02-05T02:43:21.643Z,100778.78
2019-02-05T02:45:50.637Z,100774.51
2019-02-05T02:48:19.678Z,100774.12
2019-02-05T02:50:48.686Z,100772.83
2019-02-05T02:53:17.730Z,100776.05
2019-02-05T02:55:46.722Z,100775.08
2019-02-05T02:58:15.625Z,100776.83
2019-02-05T03:00:44.642Z,100773.72
2019-02-05T03:03:13.621Z,100780.75
2019-02-05T03:05:44.357Z,100782.95
2019-02-05T03:08:13.464Z,100781.38
2019-02-05T03:10:42.456Z,100784.84
2019-02-05T03:13:11.438Z,100780.86
2019-02-05T03:15:40.442Z,100780.34
2019-02-05T03:18:09.448Z,100791.63
2019-02-05T03:20:38.456Z,100789.38
2019-02-05T03:23:07.387Z,100791.58
2019-02-05T03:25:36.429Z,100791.20
2019-02-05T03:28:05.412Z,100794.63
2019-02-05T03:30:34.384Z,100791.12
2019-02-05T03:33:03.457Z,100787.38
2019-02-05T03:35:32.392Z,100786.78
2019-02-05T03:38:01.688Z,100793.26
2019-02-05T03:41:03.941Z,100793.72
2019-02-05T03:43:33.171Z,100795.42
2019-02-05T03:46:03.957Z,100802.02
2019-02-05T03:48:33.464Z,100795.94
2019-02-05T03:51:10.752Z,100795.15
2019-02-05T03:53:41.718Z,100785.63
2019-02-05T03:56:54.299Z,100795.03
2019-02-05T03:59:56.038Z,100793.80
2019-02-05T04:03:00.478Z,100789.95
2019-02-05T04:05:47.431Z,100791.12
2019-02-05T04:08:51.366Z,100794.58
2019-02-05T04:12:01.668Z,100798.91
2019-02-05T04:15:24.294Z,100792.50
2019-02-05T04:18:41.325Z,100804.70
2019-02-05T04:21:46.788Z,100800.94
2019-02-05T04:25:02.839Z,100804.59
2019-02-05T04:28:01.560Z,100801.58
2019-02-05T04:31:10.549Z,100809.00
2019-02-05T04:34:16.403Z,100802.50
2019-02-05T04:37:26.212Z,100802.05
2019-02-05T04:40:21.916Z,100795.03
2019-02-05T04:43:20.103Z,100800.28
2019-02-05T04:46:14.757Z,100802.05
2019-02-05T04:49:18.761Z,100800.69
2019-02-05T04:52:34.868Z,100800.23
2019-02-05T04:55:40.422Z,100806.64
2019-02-05T04:58:50.984Z,100811.86
2019-02-05T05:01:45.842Z,100810.22
2019-02-05T05:04:41.028Z,100811.02
2019-02-05T05:07:47.325Z,100815.49
2019-02-05T05:10:16.345Z,100818.49
2019-02-05T05:12:45.365Z,100821.85
2019-02-05T05:15:14.414Z,100818.66
2019-02-05T05:17:43.485Z,100820.50
2019-02-05T05:20:13.052Z,100813.55
2019-02-05T05:22:42.118Z,100811.02
2019-02-05T05:25:11.772Z,100808.86
2019-02-05T05:27:40.823Z,100812.70
2019-02-05T05:30:16.356Z,100815.41
2019-02-05T05:32:45.394Z,100812.00
2019-02-05T05:35:14.376Z,100822.84
2019-02-05T05:37:43.425Z,100816.00
2019-02-05T05:40:12.539Z,100816.41
2019-02-05T05:42:41.569Z,100816.48
2019-02-05T05:45:13.136Z,100816.54
2019-02-05T05:47:42.212Z,100820.03
2019-02-05T05:50:13.893Z,100822.63
2019-02-05T05:52:42.871Z,100832.53
2019-02-05T05:55:12.198Z,100830.77
2019-02-05T05:57:41.193Z,100829.00
2019-02-05T06:00:16.173Z,100831.02
2019-02-05T06:02:45.190Z,100838.88
2019-02-05T06:05:15.404Z,100846.29
2019-02-05T06:07:44.354Z,100847.05
2019-02-05T06:10:14.049Z,100845.75
2019-02-05T06:12:43.076Z,100837.14
2019-02-05T06:15:12.192Z,100837.66
2019-02-05T06:17:42.034Z,100835.52
2019-02-05T06:20:13.446Z,100835.56
2019-02-05T06:22:42.483Z,100844.41
2019-02-05T06:25:11.820Z,100841.44
2019-02-05T06:27:40.848Z,100845.39
2019-02-05T06:30:10.814Z,100847.98
2019-02-05T06:32:39.900Z,100849.42
2019-02-05T06:35:08.995Z,100850.72
2019-02-05T06:37:38.013Z,100849.02
2019-02-05T06:40:07.826Z,100850.77
2019-02-05T06:42:36.826Z,100861.30
2019-02-05T06:45:06.679Z,100865.33
2019-02-05T06:47:35.738Z,100865.45
2019-02-05T06:50:05.481Z,100871.52
2019-02-05T06:52:34.542Z,100873.34
2019-02-05T06:55:03.625Z,100870.79
2019-02-05T06:57:32.930Z,100874.77
2019-02-05T07:00:02.017Z,100881.27
2019-02-05T07:02:31.081Z,100879.52
2019-02-05T07:05:00.074Z,100888.09
2019-02-05T07:07:29.087Z,100909.27
2019-02-05T07:09:58.121Z,100887.25
2019-02-05T07:12:27.213Z,100892.52
2019-02-05T07:14:56.277Z,100900.71
2019-02-05T07:17:25.368Z,100898.44
2019-02-05T07:19:54.397Z,100902.34
2019-02-05T07:22:23.456Z,100899.28
2019-02-05T07:24:52.473Z,100904.99
2019-02-05T07:27:21.515Z,100904.61
2019-02-05T07:29:51.014Z,100901.73
2019-02-05T07:32:20.025Z,100906.50
2019-02-05T07:34:49.017Z,100909.94
2019-02-05T07:37:18.151Z,100912.87
2019-02-05T07:39:47.095Z,100912.46
2019-02-05T07:42:16.254Z,100919.48
2019-02-05T07:44:45.285Z,100919.94
2019-02-05T07:47:14.375Z,100927.28
2019-02-05T07:49:43.410Z,100928.20
2019-02-05T07:52:12.491Z,100926.11
2019-02-05T07:54:41.498Z,100926.05
2019-02-05T07:57:10.611Z,100925.34
2019-02-05T07:59:39.662Z,100930.92
2019-02-05T08:02:08.753Z,100933.71
2019-02-05T08:04:37.764Z,100937.56
2019-02-05T08:07:07.694Z,100934.50
2019-02-05T08:09:36.810Z,100934.58
2019-02-05T08:12:05.933Z,100942.00
2019-02-05T08:14:34.988Z,100948.15
2019-02-05T08:17:04.031Z,100958.17
2019-02-05T08:19:33.089Z,100954.34
2019-02-05T08:22:02.435Z,100958.70
2019-02-05T08:24:31.750Z,100960.44
2019-02-05T08:27:00.795Z,100953.12
2019-02-05T08:29:29.889Z,100952.88
2019-02-05T08:31:58.919Z,100974.66
2019-02-05T08:34:27.964Z,100955.22
2019-02-05T08:36:57.027Z,100958.26
2019-02-05T08:39:26.055Z,100963.53
2019-02-05T08:41:55.391Z,100967.44
2019-02-05T08:44:24.431Z,100961.78
2019-02-05T08:46:53.664Z,100967.44
2019-02-05T08:49:22.714Z,100965.83
2019-02-05T08:51:51.778Z,100970.75
2019-02-05T08:54:20.975Z,100967.26
2019-02-05T08:56:50.007Z,100974.27
2019-02-05T08:59:19.369Z,100973.89
2019-02-05T09:01:48.356Z,100976.03
2019-02-05T09:04:17.393Z,100982.92
2019-02-05T09:06:46.380Z,100980.38
2019-02-05T09:09:15.389Z,100992.21
2019-02-05T09:11:44.334Z,100986.29
2019-02-05T09:14:13.262Z,100990.59
2019-02-05T09:16:42.735Z,100988.17
2019-02-05T09:19:11.779Z,100990.22
2019-02-05T09:21:40.822Z,100997.28
2019-02-05T09:24:09.828Z,101001.72
2019-02-05T09:26:38.910Z,101001.89
2019-02-05T09:29:08.016Z,100999.08
2019-02-05T09:31:37.078Z,100992.70
2019-02-05T09:34:06.144Z,100992.87
2019-02-05T09:36:35.201Z,100991.69
2019-02-05T09:39:06.778Z,100983.08
2019-02-05T09:41:35.797Z,100994.88
2019-02-05T09:44:04.755Z,101000.98
2019-02-05T09:46:33.785Z,100994.48
2019-02-05T09:49:03.458Z,100999.73
2019-02-05T09:51:32.590Z,101000.70
2019-02-05T09:54:01.664Z,100999.52
2019-02-05T09:56:30.773Z,100997.76
2019-02-05T09:58:59.838Z,100995.72
2019-02-05T10:01:28.879Z,101006.08
2019-02-05T10:03:57.903Z,101004.79
2019-02-05T10:06:27.097Z,101000.86
2019-02-05T10:08:56.159Z,101006.66
2019-02-05T10:11:25.192Z,101004.11
2019-02-05T10:13:54.251Z,101010.63
2019-02-05T10:16:23.316Z,101017.42
2019-02-05T10:18:53.103Z,101020.08
2019-02-05T10:21:22.151Z,101023.48
2019-02-05T10:23:51.203Z,101026.14
2019-02-05T10:26:20.286Z,101030.55
2019-02-05T10:28:49.277Z,101034.97
2019-02-05T10:31:18.342Z,101032.88
2019-02-05T10:33:54.987Z,101034.25
2019-02-05T10:36:18.248Z,101035.55
2019-02-05T10:38:47.525Z,101038.72
2019-02-05T10:41:16.711Z,101038.14
2019-02-05T10:43:45.733Z,101041.95
2019-02-05T10:46:14.835Z,101037.59
2019-02-05T10:48:43.897Z,101039.05
2019-02-05T10:51:13.051Z,101039.19
2019-02-05T10:53:42.080Z,101035.39
2019-02-05T10:56:11.406Z,101034.25
2019-02-05T10:58:40.458Z,101044.05
2019-02-05T11:01:09.691Z,101041.64
2019-02-05T11:03:38.854Z,101038.76
2019-02-05T11:06:07.909Z,101035.50
2019-02-05T11:08:36.956Z,101036.92
2019-02-05T11:11:06.005Z,101038.72
2019-02-05T11:13:35.276Z,101040.52
2019-02-05T11:16:04.430Z,101033.39
2019-02-05T11:18:33.544Z,101032.44
2019-02-05T11:21:04.472Z,101029.88
2019-02-05T11:23:33.617Z,101033.73
2019-02-05T12:28:36.200Z,101010.83
2019-02-05T12:31:06.278Z,101013.48
2019-02-05T12:33:35.407Z,101021.47
2019-02-05T12:36:04.480Z,101021.00
2019-02-05T12:38:44.580Z,101020.51
2019-02-05T12:41:23.801Z,101011.17
2019-02-05T12:43:50.599Z,101014.13
2019-02-05T12:46:32.349Z,101010.63
2019-02-05T12:49:02.206Z,101019.50
2019-02-05T12:51:31.528Z,101015.74
2019-02-05T12:54:29.123Z,101009.77
2019-02-05T12:57:27.039Z,101008.41
2019-02-05T13:00:04.022Z,101005.41
2019-02-05T13:02:41.572Z,101011.57
2019-02-05T13:05:11.420Z,101013.83
2019-02-05T13:07:58.372Z,101016.69
2019-02-05T13:10:33.522Z,101012.79
2019-02-05T13:16:00.689Z,101011.59
2019-02-05T13:18:29.825Z,101011.67
2019-02-05T13:20:58.876Z,101011.27
2019-02-05T13:23:28.007Z,101013.47
2019-02-05T13:25:57.105Z,100999.16
2019-02-05T13:28:29.248Z,100997.84
2019-02-05T13:31:07.764Z,101004.02
2019-02-05T13:33:30.147Z,101003.58
2019-02-05T13:35:59.686Z,100999.20
2019-02-05T13:38:31.574Z,100999.20
2019-02-05T13:41:03.175Z,101000.11
2019-02-05T13:44:01.034Z,100997.91
2019-02-05T13:46:42.975Z,100992.73
2019-02-05T13:49:35.659Z,100996.73
2019-02-05T13:52:30.017Z,100999.44
2019-02-05T13:55:05.708Z,100999.04
2019-02-05T13:57:36.445Z,101013.89
2019-02-05T14:00:08.692Z,101001.80
2019-02-05T14:02:38.286Z,101001.43
2019-02-05T14:05:08.920Z,101002.30
2019-02-05T14:07:38.211Z,101005.34
2019-02-05T14:10:11.391Z,101011.42
2019-02-05T14:12:40.735Z,101015.30
2019-02-05T14:15:10.577Z,101009.30
2019-02-05T14:17:40.286Z,101008.81
2019-02-05T14:20:10.437Z,101006.65
2019-02-05T14:22:40.296Z,101011.91
2019-02-05T14:25:14.451Z,101017.19
2019-02-05T14:27:44.411Z,101006.70
2019-02-05T14:30:20.311Z,101011.06
2019-02-05T14:32:49.516Z,101007.50
2019-02-05T14:38:49.999Z,101000.45
2019-02-05T14:42:06.933Z,101006.06
2019-02-05T14:44:42.979Z,101002.60
2019-02-05T14:47:21.993Z,101007.42
2019-02-05T14:49:51.224Z,101008.77
2019-02-05T14:52:20.911Z,101014.44
2019-02-05T14:54:53.291Z,101007.47
2019-02-05T14:57:22.647Z,101010.61
2019-02-05T14:59:51.991Z,101005.39
2019-02-05T15:02:21.403Z,101003.50
2019-02-05T15:04:51.108Z,101008.81
2019-02-05T15:07:20.584Z,101007.47
2019-02-05T15:09:50.085Z,101004.00
2019-02-05T15:12:19.410Z,101000.53
2019-02-05T15:14:48.680Z,101005.34
2019-02-05T15:17:17.964Z,101011.88
2019-02-05T15:19:47.245Z,101006.20
2019-02-05T15:22:16.840Z,101002.24
2019-02-05T16:27:07.643Z,101001.05
2019-02-05T16:29:41.483Z,101004.95
2019-02-05T16:32:17.647Z,101005.28
2019-02-05T16:38:27.223Z,101010.34
2019-02-05T16:41:01.818Z,100703.67
2019-02-05T16:44:00.252Z,101013.91
2019-02-05T16:46:52.596Z,101015.71
2019-02-05T16:49:27.462Z,101019.19
2019-02-05T16:52:41.523Z,101013.17
2019-02-05T16:55:11.360Z,101011.48
2019-02-05T16:57:41.621Z,101009.42
2019-02-05T17:00:19.725Z,101006.47
2019-02-05T17:02:49.412Z,101010.78
2019-02-05T17:05:19.110Z,101007.33
2019-02-05T17:07:48.526Z,101010.27
2019-02-05T17:10:21.873Z,101018.43
2019-02-05T17:12:51.386Z,101016.97
2019-02-05T17:15:20.898Z,101016.52
2019-02-05T17:17:50.742Z,101013.73
2019-02-05T17:20:24.416Z,101005.80
2019-02-05T17:22:53.903Z,101004.84
2019-02-05T17:25:24.071Z,100996.52
2019-02-05T17:27:53.470Z,101009.88
2019-02-05T17:30:24.337Z,101011.62
2019-02-05T17:32:53.435Z,101009.87
2019-02-05T17:35:22.615Z,101011.53
2019-02-05T17:37:51.733Z,101007.14
2019-02-05T17:40:22.181Z,101006.19
2019-02-05T17:42:51.533Z,101013.88
2019-02-05T17:45:22.632Z,101012.14
2019-02-05T17:47:51.884Z,101009.87
2019-02-05T17:50:21.013Z,101008.09
2019-02-05T17:52:50.196Z,101006.34
2019-02-05T17:55:19.706Z,101008.33
2019-02-05T17:57:48.774Z,100999.66
2019-02-05T18:00:25.120Z,100993.09
2019-02-05T18:02:53.966Z,100993.89
2019-02-05T18:05:23.257Z,100999.47
2019-02-05T18:07:52.326Z,100997.14
2019-02-05T18:10:23.806Z,101000.08
2019-02-05T18:12:52.796Z,101003.97
2019-02-05T18:15:24.213Z,100993.91
2019-02-05T18:17:53.502Z,100999.63
2019-02-05T18:20:22.516Z,101004.78
2019-02-05T18:22:52.061Z,100999.57
2019-02-05T18:25:21.442Z,100999.57
2019-02-05T18:27:50.578Z,101003.00
2019-02-05T18:30:30.867Z,100999.05
2019-02-05T18:33:05.574Z,100998.59
2019-02-05T18:35:30.644Z,100998.52
2019-02-05T18:37:59.825Z,101002.42
2019-02-05T18:40:28.892Z,101004.91
2019-02-05T18:42:57.926Z,101006.94
2019-02-05T18:45:26.937Z,101003.74
2019-02-05T18:47:56.216Z,101005.83
2019-02-05T18:50:25.839Z,100997.55
2019-02-05T18:52:54.987Z,100996.14
2019-02-05T18:55:25.839Z,100999.17
2019-02-05T18:57:54.941Z,100996.14
2019-02-05T19:00:49.296Z,100996.19
2019-02-05T19:03:18.417Z,100985.66
2019-02-05T19:05:47.442Z,100984.28
2019-02-05T19:08:16.973Z,100982.41
2019-02-05T19:10:45.981Z,100984.18
2019-02-05T19:13:15.040Z,100974.97
2019-02-05T19:15:44.458Z,100973.13
2019-02-05T19:18:13.516Z,100964.78
2019-02-05T19:20:42.556Z,100967.00
2019-02-05T19:23:11.673Z,100962.27
2019-02-05T19:25:59.688Z,100957.88
2019-02-05T19:28:33.526Z,100957.83
2019-02-05T19:31:05.987Z,100948.67
2019-02-05T19:33:34.979Z,100949.52
2019-02-05T19:36:03.991Z,100955.41
2019-02-05T19:38:33.083Z,100955.73
2019-02-05T19:41:02.618Z,100956.11
2019-02-05T19:43:31.632Z,100955.45
2019-02-05T19:46:19.240Z,100948.94
2019-02-05T19:48:54.360Z,100944.98
2019-02-05T19:51:23.363Z,100943.16
2019-02-05T19:53:54.002Z,100942.16
2019-02-05T19:56:23.500Z,100934.25
2019-02-05T19:58:52.636Z,100935.06
2019-02-05T20:01:21.712Z,100933.94
2019-02-05T20:03:50.750Z,100944.36
2019-02-05T20:06:19.958Z,100938.09
2019-02-05T20:08:49.094Z,100945.56
2019-02-05T20:11:18.437Z,100936.56
2019-02-05T20:13:47.497Z,100944.27
2019-02-05T20:16:16.502Z,100937.25
2019-02-05T20:18:45.595Z,100937.17
2019-02-05T20:21:14.685Z,100938.41
2019-02-05T20:23:43.771Z,100939.77
2019-02-05T20:26:12.899Z,100941.01
2019-02-05T20:28:41.900Z,100940.46
2019-02-05T20:31:10.971Z,100933.99
2019-02-05T20:33:49.758Z,100941.70
2019-02-05T20:36:10.815Z,100936.45
2019-02-05T20:38:39.925Z,100936.82
2019-02-05T20:41:08.969Z,100947.58
2019-02-05T20:43:45.189Z,100945.36
2019-02-05T20:46:14.253Z,100949.17
2019-02-05T20:48:43.248Z,100949.97
2019-02-05T20:51:12.501Z,100946.14
2019-02-05T20:53:41.479Z,100949.17
2019-02-05T20:56:10.495Z,100952.17
2019-02-05T20:58:39.523Z,100946.88
2019-02-05T21:01:08.480Z,100947.20
2019-02-05T21:03:37.567Z,100947.20
2019-02-05T21:06:07.129Z,100942.78
2019-02-05T21:08:36.137Z,100942.84
2019-02-05T21:11:05.337Z,100940.19
2019-02-05T21:13:34.430Z,100944.08
2019-02-05T21:16:03.836Z,100937.52
2019-02-05T21:18:32.905Z,100965.69
2019-02-05T21:21:02.003Z,100941.80
2019-02-05T21:23:30.942Z,100942.63
2019-02-05T21:25:59.975Z,100940.03
2019-02-05T21:28:29.008Z,100945.63
2019-02-05T21:30:58.029Z,100939.57
2019-02-05T21:33:27.594Z,100935.61
2019-02-05T21:35:56.616Z,100942.53
2019-02-05T21:38:25.682Z,100944.61
2019-02-05T21:40:54.689Z,100945.38
2019-02-05T21:43:23.789Z,100945.84
2019-02-05T21:45:52.801Z,100944.17
2019-02-05T21:48:22.165Z,100949.86
2019-02-05T21:50:51.186Z,100943.25
2019-02-05T21:53:20.251Z,100941.58
2019-02-05T21:55:49.271Z,100942.39
2019-02-05T21:58:18.339Z,100936.05
2019-02-05T22:00:47.346Z,100944.83
2019-02-05T22:03:16.361Z,100939.66
2019-02-05T22:05:45.649Z,100950.56
2019-02-05T22:08:14.658Z,100950.56
2019-02-05T22:10:43.611Z,100946.67
2019-02-05T22:13:12.649Z,100940.24
2019-02-05T22:15:41.693Z,100934.67
2019-02-05T22:18:10.684Z,100938.51
2019-02-05T22:20:39.716Z,100933.47
2019-02-05T22:23:09.008Z,100933.21
2019-02-05T22:25:38.072Z,100934.13
2019-02-05T22:28:07.075Z,100933.39
2019-02-05T22:30:36.405Z,100926.05
2019-02-05T22:33:05.597Z,100927.04
2019-02-05T22:35:34.656Z,100920.55
2019-02-05T22:38:03.673Z,100917.23
2019-02-05T22:40:32.586Z,100911.25
2019-02-05T22:43:01.961Z,100912.55
2019-02-05T22:45:31.064Z,100906.46
2019-02-05T22:48:00.054Z,100912.95
2019-02-05T22:50:30.720Z,100906.31
2019-02-05T22:53:00.341Z,100905.54
2019-02-05T22:55:29.327Z,100902.02
2019-02-05T22:57:58.289Z,100911.59
2019-02-05T23:00:52.046Z,100907.30
2019-02-05T23:03:59.672Z,100905.11
2019-02-05T23:06:59.123Z,100897.14
2019-02-05T23:09:35.534Z,100905.02
2019-02-05T23:12:13.095Z,100897.48
2019-02-05T23:14:42.517Z,100899.77
2019-02-05T23:17:11.530Z,100896.31
2019-02-05T23:19:40.615Z,100901.97
2019-02-05T23:22:09.628Z,100895.93
2019-02-05T23:24:38.676Z,100900.28
2019-02-05T23:27:07.755Z,100905.22
2019-02-05T23:29:36.816Z,100901.41
2019-02-05T23:32:05.832Z,100902.30
2019-02-05T23:34:34.805Z,100901.61
2019-02-05T23:37:03.823Z,100903.23
2019-02-05T23:39:32.856Z,100902.01
2019-02-05T23:42:01.847Z,100768.56
2019-02-05T23:44:30.840Z,100905.78
2019-02-05T23:47:00.048Z,100915.73
2019-02-05T23:49:29.110Z,100909.38
2019-02-05T23:51:58.128Z,100907.22
2019-02-05T23:54:27.039Z,100904.64
2019-02-05T23:56:56.023Z,100913.09
2019-02-05T23:59:25.029Z,100907.35
